SCVD/ZAL METAR and TAF weather

Enter ICAO airport designator
Station Type Date Time Source
SCVD METAR 2019/12/13 03:00 UTC NOAA

SCVD 130300Z AUTO 23003KT 200V260 CAVOK 14/11 Q1015


Station Type Date Time Source
SCVD Decoded METAR 2019/12/13 03:00 UTC NOAA

Valdivia, Chile (SCVD) 39-37S 073-05W
Dec 12, 2019 - 10:00 PM EST / 2019.12.13 0300 UTC
Wind: from the SW (230 degrees) at 3 MPH (3 KT) (direction variable):0
Visibility: greater than 7 mile(s):0
Temperature: 57 F (14 C)
Dew Point: 51 F (11 C)
Relative Humidity: 82%
Pressure (altimeter): 29.97 in. Hg (1015 hPa)
ob: SCVD 130300Z AUTO 23003KT 200V260 CAVOK 14/11 Q1015
cycle: 3

Station Type Date Time Source
SCVD TAF 2019/12/12 12:00 UTC NOAA

TAF SCVD 121026Z 1212/1224 VRB02KT 5000 BR SCT010 TN04/1212Z TX19/1219Z
BECMG 1212/1214 16010KT 9999 NSW CAVOK
BECMG 1218/1220 27007KT
BECMG 1222/1224 VRB02KT

Example: see airport list